createdAt,value
2023-02-03T00:02:20.633Z,8.20
2023-02-03T00:04:47.260Z,8.20
2023-02-03T00:07:15.006Z,8.20
2023-02-03T00:09:41.875Z,8.30
2023-02-03T00:12:09.112Z,8.30
2023-02-03T00:14:37.872Z,8.40
2023-02-03T00:17:05.347Z,8.40
2023-02-03T00:19:32.200Z,8.40
2023-02-03T00:21:58.904Z,8.40
2023-02-03T00:24:25.759Z,8.40
2023-02-03T00:26:52.501Z,8.30
2023-02-03T00:29:21.533Z,8.30
2023-02-03T00:31:48.357Z,8.30
2023-02-03T00:34:15.092Z,8.30
2023-02-03T00:36:43.106Z,8.20
2023-02-03T00:39:09.851Z,8.20
2023-02-03T00:41:36.480Z,8.20
2023-02-03T00:44:03.135Z,8.10
2023-02-03T00:46:29.844Z,8.20
2023-02-03T00:48:56.487Z,8.20
2023-02-03T00:51:23.145Z,8.20
2023-02-03T00:53:49.826Z,8.20
2023-02-03T00:56:16.458Z,8.20
2023-02-03T00:58:43.206Z,8.20
2023-02-03T01:01:10.348Z,8.10
2023-02-03T01:03:37.555Z,8.10
2023-02-03T01:06:15.928Z,8.10
2023-02-03T01:08:43.383Z,8.10
2023-02-03T01:11:17.112Z,8.10
2023-02-03T01:13:44.699Z,8.00
2023-02-03T01:16:13.486Z,8.00
2023-02-03T01:18:41.017Z,8.00
2023-02-03T01:21:13.934Z,8.00
2023-02-03T01:23:41.930Z,8.00
2023-02-03T01:26:10.835Z,8.00
2023-02-03T01:28:38.799Z,8.10
2023-02-03T01:31:17.388Z,8.10
2023-02-03T01:33:47.097Z,8.20
2023-02-03T01:36:15.566Z,8.20
2023-02-03T01:38:42.716Z,8.30
2023-02-03T01:41:12.867Z,8.30
2023-02-03T01:43:42.818Z,8.30
2023-02-03T01:46:37.404Z,8.20
2023-02-03T01:49:16.972Z,8.30
2023-02-03T01:51:45.234Z,8.30
2023-02-03T01:54:19.115Z,8.30
2023-02-03T01:56:51.423Z,8.30
2023-02-03T01:59:21.997Z,8.30
2023-02-03T02:01:49.727Z,8.30
2023-02-03T02:04:16.832Z,8.40
2023-02-03T02:06:45.369Z,8.40
2023-02-03T02:09:12.130Z,8.40
2023-02-03T02:11:38.773Z,8.40
2023-02-03T02:14:05.586Z,8.40
2023-02-03T02:16:49.643Z,8.50
2023-02-03T02:19:45.277Z,8.50
2023-02-03T02:22:22.395Z,8.70
2023-02-03T02:25:26.178Z,8.50
2023-02-03T02:28:13.894Z,8.50
2023-02-03T02:31:08.333Z,8.50
2023-02-03T02:33:50.017Z,8.50
2023-02-03T02:36:35.149Z,8.60
2023-02-03T02:39:19.440Z,8.60
2023-02-03T02:41:53.763Z,8.60
2023-02-03T02:44:30.270Z,8.60
2023-02-03T02:47:15.607Z,8.60
2023-02-03T02:50:06.999Z,8.60
2023-02-03T02:52:39.972Z,8.60
2023-02-03T02:55:15.160Z,8.70
2023-02-03T02:57:42.837Z,8.60
2023-02-03T03:00:10.217Z,8.60
2023-02-03T03:02:37.049Z,8.60
2023-02-03T03:05:07.461Z,8.60
2023-02-03T03:07:41.776Z,8.60
2023-02-03T03:10:12.539Z,8.60
2023-02-03T03:12:45.558Z,8.60
2023-02-03T03:15:17.443Z,8.60
2023-02-03T03:18:13.122Z,8.60
2023-02-03T03:20:42.993Z,8.60
2023-02-03T03:23:15.505Z,8.60
2023-02-03T03:25:49.049Z,8.60
2023-02-03T03:28:24.072Z,8.60
2023-02-03T03:30:50.882Z,8.50
2023-02-03T03:33:17.596Z,8.60
2023-02-03T03:36:17.709Z,8.50
2023-02-03T03:39:08.678Z,8.50
2023-02-03T03:41:56.308Z,8.50
2023-02-03T03:44:29.263Z,8.50
2023-02-03T03:47:16.167Z,8.50
2023-02-03T03:49:45.758Z,8.50
2023-02-03T03:52:17.855Z,8.50
2023-02-03T03:54:46.836Z,8.50
2023-02-03T03:57:19.034Z,8.50
2023-02-03T03:59:48.309Z,8.60
2023-02-03T04:02:17.411Z,8.50
2023-02-03T04:04:46.115Z,8.60
2023-02-03T04:07:14.071Z,8.60
2023-02-03T04:09:42.837Z,8.60
2023-02-03T04:12:23.732Z,8.60
2023-02-03T04:14:50.412Z,8.50
2023-02-03T04:17:19.996Z,8.60
2023-02-03T04:19:47.959Z,8.60
2023-02-03T04:22:14.607Z,8.50
2023-02-03T04:24:41.252Z,8.50
2023-02-03T04:27:07.955Z,8.50
2023-02-03T04:29:34.624Z,8.50
2023-02-03T04:32:01.372Z,8.50
2023-02-03T04:34:28.012Z,8.50
2023-02-03T04:36:54.653Z,8.60
2023-02-03T04:39:21.631Z,8.60
2023-02-03T04:41:48.265Z,8.60
2023-02-03T04:44:14.976Z,8.60
2023-02-03T04:46:41.637Z,8.60
2023-02-03T04:49:11.526Z,8.20
2023-02-03T04:51:38.272Z,8.70
2023-02-03T04:54:04.924Z,8.60
2023-02-03T04:56:31.539Z,8.70
2023-02-03T04:58:58.194Z,9.20
2023-02-03T05:01:24.864Z,8.70
2023-02-03T05:03:51.571Z,8.60
2023-02-03T05:06:25.962Z,8.60
2023-02-03T05:08:53.449Z,8.60
2023-02-03T05:11:20.581Z,8.60
2023-02-03T05:13:47.392Z,8.60
2023-02-03T05:16:14.467Z,8.60
2023-02-03T05:18:41.317Z,8.60
2023-02-03T05:21:08.104Z,8.60
2023-02-03T05:23:36.639Z,8.60
2023-02-03T05:26:03.763Z,8.60
2023-02-03T05:28:30.458Z,8.60
2023-02-03T05:31:01.682Z,8.60
2023-02-03T05:33:29.053Z,8.60
2023-02-03T05:35:56.145Z,8.60
2023-02-03T05:38:22.825Z,8.60
2023-02-03T05:41:09.018Z,8.50
2023-02-03T05:43:36.100Z,8.50
2023-02-03T05:46:04.637Z,8.50
2023-02-03T05:48:31.329Z,8.50
2023-02-03T05:50:58.012Z,8.50
2023-02-03T05:53:25.997Z,8.50
2023-02-03T05:55:52.744Z,8.50
2023-02-03T05:58:19.788Z,8.50
2023-02-03T06:00:47.143Z,8.50
2023-02-03T06:03:13.818Z,8.50
2023-02-03T06:05:41.360Z,8.50
2023-02-03T06:08:08.713Z,8.50
2023-02-03T06:10:35.701Z,8.50
2023-02-03T06:13:13.494Z,8.60
2023-02-03T06:15:40.889Z,8.50
2023-02-03T06:18:07.971Z,8.50
2023-02-03T06:20:35.078Z,8.50
2023-02-03T06:23:01.734Z,8.50
2023-02-03T06:25:28.674Z,8.50
2023-02-03T06:27:55.379Z,8.50
2023-02-03T06:30:23.742Z,8.50
2023-02-03T06:32:50.952Z,8.50
2023-02-03T06:35:18.414Z,8.50
2023-02-03T06:37:45.043Z,8.50
2023-02-03T06:40:12.567Z,8.50
2023-02-03T06:42:39.270Z,8.50
2023-02-03T06:45:06.340Z,8.50
2023-02-03T06:47:32.969Z,8.60
2023-02-03T06:49:59.607Z,8.50
2023-02-03T06:52:26.312Z,8.60
2023-02-03T06:54:52.947Z,8.60
2023-02-03T06:57:19.842Z,8.60
2023-02-03T06:59:46.457Z,8.60
2023-02-03T07:02:13.194Z,8.60
2023-02-03T07:04:40.070Z,8.70
2023-02-03T07:07:06.951Z,8.70
2023-02-03T07:09:33.580Z,8.70
2023-02-03T07:12:00.179Z,8.70
2023-02-03T07:14:26.788Z,8.80
2023-02-03T07:16:54.326Z,8.80
2023-02-03T07:19:21.030Z,8.80
2023-02-03T07:21:47.631Z,8.80
2023-02-03T07:24:14.345Z,8.80
2023-02-03T07:26:40.994Z,8.80
2023-02-03T07:29:07.742Z,8.80
2023-02-03T07:31:35.741Z,8.90
2023-02-03T07:34:02.763Z,8.90
2023-02-03T07:36:29.391Z,8.90
2023-02-03T07:38:56.488Z,8.90
2023-02-03T07:41:23.157Z,8.90
2023-02-03T07:43:49.975Z,8.90
2023-02-03T07:46:17.195Z,8.90
2023-02-03T07:48:43.858Z,8.90
2023-02-03T07:51:10.571Z,8.90
2023-02-03T07:53:37.281Z,8.90
2023-02-03T07:56:05.379Z,9.00
2023-02-03T07:58:32.471Z,9.00
2023-02-03T08:00:59.972Z,9.00
2023-02-03T08:03:26.680Z,9.00
2023-02-03T08:05:53.570Z,9.00
2023-02-03T08:08:20.333Z,9.10
2023-02-03T08:10:47.029Z,9.10
2023-02-03T08:13:13.730Z,9.10
2023-02-03T08:15:40.363Z,9.10
2023-02-03T08:18:09.196Z,9.10
2023-02-03T08:20:35.958Z,9.20
2023-02-03T08:23:02.563Z,9.20
2023-02-03T08:25:29.276Z,9.20
2023-02-03T08:27:56.064Z,9.20
2023-02-03T08:30:23.048Z,9.20
2023-02-03T08:32:49.764Z,9.20
2023-02-03T08:35:16.579Z,9.30
2023-02-03T08:37:43.245Z,9.30
2023-02-03T08:40:11.252Z,9.30
2023-02-03T08:42:37.939Z,9.30
2023-02-03T08:45:05.317Z,9.30
2023-02-03T08:47:32.066Z,9.40
2023-02-03T08:49:58.723Z,9.40
2023-02-03T08:52:25.368Z,9.40
2023-02-03T08:54:52.046Z,9.50
2023-02-03T08:57:18.723Z,9.50
2023-02-03T08:59:45.473Z,9.50
2023-02-03T09:02:17.746Z,9.60
2023-02-03T09:04:47.453Z,9.60
2023-02-03T09:07:14.389Z,9.60
2023-02-03T09:09:41.019Z,9.60
2023-02-03T09:12:08.347Z,9.70
2023-02-03T09:14:35.469Z,9.70
2023-02-03T09:17:03.487Z,9.70
2023-02-03T09:19:31.182Z,9.80
2023-02-03T09:21:58.245Z,9.80
2023-02-03T09:24:25.449Z,9.80
2023-02-03T09:26:52.599Z,9.80
2023-02-03T09:29:20.154Z,9.80
2023-02-03T09:31:48.657Z,9.80
2023-02-03T09:34:15.305Z,9.80
2023-02-03T09:36:43.046Z,9.80
2023-02-03T09:39:09.845Z,9.80
2023-02-03T09:41:51.782Z,9.90
2023-02-03T09:44:30.008Z,9.90
2023-02-03T09:47:02.082Z,10.00
2023-02-03T09:49:39.218Z,10.00
2023-02-03T09:52:37.196Z,10.00
2023-02-03T09:55:27.232Z,10.00
2023-02-03T09:58:12.358Z,10.00
2023-02-03T10:00:43.273Z,10.10
2023-02-03T10:03:12.909Z,10.10
2023-02-03T10:06:12.260Z,10.10
2023-02-03T10:09:05.531Z,10.10
2023-02-03T10:11:50.283Z,10.20
2023-02-03T10:14:35.009Z,10.20
2023-02-03T10:17:22.606Z,10.20
2023-02-03T10:20:26.806Z,10.20
2023-02-03T10:22:58.563Z,10.20
2023-02-03T10:25:45.552Z,10.20
2023-02-03T10:28:18.314Z,10.20
2023-02-03T10:30:59.268Z,10.30
2023-02-03T10:33:28.713Z,10.30
2023-02-03T10:36:21.917Z,10.40
2023-02-03T10:38:48.500Z,10.50
2023-02-03T10:41:16.545Z,10.50
2023-02-03T10:43:51.407Z,10.60
2023-02-03T10:46:30.032Z,10.60
2023-02-03T10:48:56.833Z,10.60
2023-02-03T10:51:52.903Z,10.60
2023-02-03T10:54:34.516Z,10.50
2023-02-03T10:57:12.621Z,10.50
2023-02-03T10:59:46.533Z,10.50
2023-02-03T11:02:29.399Z,10.50
2023-02-03T11:05:15.972Z,10.50
2023-02-03T11:07:43.826Z,10.40
2023-02-03T11:10:37.712Z,10.50
2023-02-03T11:13:22.361Z,10.50
2023-02-03T11:16:02.730Z,10.50
2023-02-03T11:18:38.442Z,10.50
2023-02-03T11:21:37.161Z,10.50
2023-02-03T11:24:18.136Z,10.70
2023-02-03T11:27:06.897Z,10.60
2023-02-03T11:29:43.684Z,10.60
2023-02-03T11:32:32.535Z,10.60
2023-02-03T11:35:12.804Z,10.60
2023-02-03T11:37:45.327Z,10.60
2023-02-03T11:40:23.477Z,10.70
2023-02-03T11:42:50.152Z,10.70
2023-02-03T11:45:29.297Z,10.80
2023-02-03T11:48:01.832Z,10.80
2023-02-03T11:50:44.893Z,10.80
2023-02-03T11:53:22.926Z,10.80
2023-02-03T11:56:07.051Z,10.80
2023-02-03T11:59:10.007Z,10.90
2023-02-03T12:02:08.141Z,10.80
2023-02-03T12:05:00.844Z,10.80
2023-02-03T12:07:48.749Z,10.80
2023-02-03T12:10:18.150Z,10.80
2023-02-03T12:13:05.822Z,10.80
2023-02-03T12:15:35.240Z,10.70
2023-02-03T12:18:11.315Z,10.70
2023-02-03T12:20:56.382Z,10.70
2023-02-03T12:23:38.625Z,10.70
2023-02-03T12:26:24.908Z,10.70
2023-02-03T12:28:59.218Z,10.70
2023-02-03T12:31:49.861Z,10.70
2023-02-03T12:34:26.296Z,10.70
2023-02-03T12:37:10.291Z,10.70
2023-02-03T12:39:44.546Z,10.70
2023-02-03T12:42:43.148Z,10.70
2023-02-03T12:45:20.828Z,10.80
2023-02-03T12:47:54.022Z,10.80
2023-02-03T12:50:30.846Z,10.80
2023-02-03T12:53:00.519Z,10.80
2023-02-03T12:55:44.081Z,10.80
2023-02-03T12:58:38.213Z,10.80
2023-02-03T13:01:10.978Z,10.80
2023-02-03T13:03:55.153Z,10.80
2023-02-03T13:06:33.712Z,10.80
2023-02-03T13:09:21.290Z,10.90
2023-02-03T13:12:08.870Z,10.90
2023-02-03T13:14:42.568Z,10.90
2023-02-03T13:17:15.816Z,10.90
2023-02-03T13:19:48.130Z,10.90
2023-02-03T13:22:17.225Z,10.90
2023-02-03T13:24:48.850Z,10.90
2023-02-03T13:27:46.892Z,10.90
2023-02-03T13:30:29.934Z,10.90
2023-02-03T13:33:38.317Z,10.90
2023-02-03T13:36:27.896Z,10.90
2023-02-03T13:39:20.280Z,10.90
2023-02-03T13:42:12.651Z,10.90
2023-02-03T13:44:41.112Z,10.90
2023-02-03T13:47:17.423Z,10.90
2023-02-03T13:49:49.165Z,10.90
2023-02-03T13:52:36.631Z,11.00
2023-02-03T13:55:04.721Z,10.90
2023-02-03T13:57:37.958Z,10.90
2023-02-03T14:00:27.200Z,10.90
2023-02-03T14:02:56.080Z,10.90
2023-02-03T14:05:40.429Z,10.80
2023-02-03T14:08:25.837Z,10.90
2023-02-03T14:11:30.252Z,10.90
2023-02-03T14:14:09.551Z,10.90
2023-02-03T14:16:37.805Z,10.80
2023-02-03T14:19:05.273Z,10.70
2023-02-03T14:21:42.843Z,10.70
2023-02-03T14:24:11.616Z,10.70
2023-02-03T14:26:44.493Z,10.60
2023-02-03T14:29:28.013Z,10.60
2023-02-03T14:31:58.505Z,10.60
2023-02-03T14:34:30.259Z,10.50
2023-02-03T14:37:08.888Z,10.50
2023-02-03T14:40:18.449Z,10.40
2023-02-03T14:43:15.159Z,10.40
2023-02-03T14:46:14.721Z,10.30
2023-02-03T14:48:51.950Z,10.30
2023-02-03T14:51:54.476Z,10.30
2023-02-03T14:54:26.677Z,10.20
2023-02-03T14:57:21.215Z,10.20
2023-02-03T15:00:01.541Z,10.20
2023-02-03T15:02:31.167Z,10.20
2023-02-03T15:05:19.957Z,10.20
2023-02-03T15:07:51.935Z,10.20
2023-02-03T15:10:25.242Z,10.20
2023-02-03T15:12:54.145Z,10.10
2023-02-03T15:15:29.319Z,10.10
2023-02-03T15:18:19.104Z,10.20
2023-02-03T15:20:47.056Z,10.20
2023-02-03T15:23:23.059Z,10.20
2023-02-03T15:26:11.047Z,10.20
2023-02-03T15:28:37.661Z,10.30
2023-02-03T15:31:10.353Z,10.30
2023-02-03T15:33:39.076Z,10.30
2023-02-03T15:36:12.991Z,10.30
2023-02-03T15:38:45.712Z,10.30
2023-02-03T15:41:22.499Z,10.40
2023-02-03T15:43:56.233Z,10.30
2023-02-03T15:46:31.214Z,10.30
2023-02-03T15:49:06.083Z,10.40
2023-02-03T15:51:43.989Z,10.30
2023-02-03T15:54:30.601Z,10.30
2023-02-03T15:57:01.876Z,10.20
2023-02-03T15:59:40.839Z,10.30
2023-02-03T16:02:19.511Z,10.30
2023-02-03T16:04:46.443Z,10.30
2023-02-03T16:07:22.609Z,10.30
2023-02-03T16:09:54.184Z,10.30
2023-02-03T16:12:26.756Z,10.40
2023-02-03T16:14:55.394Z,10.30
2023-02-03T16:17:34.959Z,10.30
2023-02-03T16:20:10.763Z,10.30
2023-02-03T16:22:40.072Z,10.30
2023-02-03T16:25:21.749Z,10.30
2023-02-03T16:28:16.569Z,10.30
2023-02-03T16:31:20.589Z,10.30
2023-02-03T16:34:08.476Z,10.30
2023-02-03T16:36:58.962Z,10.30
2023-02-03T16:39:45.540Z,10.40
2023-02-03T16:42:35.317Z,10.30
2023-02-03T16:45:21.973Z,10.30
2023-02-03T16:48:07.395Z,10.30
2023-02-03T16:50:53.459Z,10.30
2023-02-03T16:53:25.362Z,10.30
2023-02-03T16:55:53.709Z,10.30
2023-02-03T16:58:20.519Z,10.30
2023-02-03T17:00:49.205Z,10.30
2023-02-03T17:03:22.358Z,10.30
2023-02-03T17:05:50.564Z,10.30
2023-02-03T17:08:19.843Z,10.30
2023-02-03T17:10:47.976Z,10.30
2023-02-03T17:13:16.043Z,10.30
2023-02-03T17:15:44.925Z,10.20
2023-02-03T17:18:12.859Z,10.20
2023-02-03T17:20:40.041Z,10.20
2023-02-03T17:23:06.705Z,10.10
2023-02-03T17:25:35.931Z,10.20
2023-02-03T17:28:07.546Z,10.20
2023-02-03T17:30:35.504Z,10.20
2023-02-03T17:33:11.626Z,10.20
2023-02-03T17:35:43.168Z,10.20
2023-02-03T17:38:11.555Z,10.20
2023-02-03T17:54:27.462Z,10.10
2023-02-03T17:56:54.155Z,10.20
2023-02-03T17:59:20.762Z,10.20
2023-02-03T18:01:47.404Z,10.20
2023-02-03T18:04:14.292Z,10.20
2023-02-03T18:06:41.052Z,10.20
2023-02-03T18:09:10.137Z,10.20
2023-02-03T18:11:37.636Z,10.20
2023-02-03T18:14:05.466Z,10.10
2023-02-03T18:16:34.741Z,10.10
2023-02-03T18:19:04.375Z,10.20
2023-02-03T18:21:34.336Z,10.10
2023-02-03T18:24:01.664Z,10.10
2023-02-03T18:26:32.385Z,10.00
2023-02-03T18:28:59.035Z,10.00
2023-02-03T18:31:25.728Z,10.00
2023-02-03T18:33:52.981Z,10.00
2023-02-03T18:36:19.867Z,9.90
2023-02-03T18:38:47.164Z,9.90
2023-02-03T18:41:19.070Z,9.90
2023-02-03T18:43:48.613Z,9.90
2023-02-03T18:46:22.104Z,9.90
2023-02-03T18:48:48.853Z,10.00
2023-02-03T18:51:18.016Z,9.90
2023-02-03T18:53:46.651Z,9.90
2023-02-03T18:56:17.457Z,9.80
2023-02-03T18:58:44.131Z,9.90
2023-02-03T19:01:18.745Z,10.00
2023-02-03T19:03:45.343Z,10.00
2023-02-03T19:06:11.979Z,10.10
2023-02-03T19:08:38.600Z,10.10
2023-02-03T19:11:05.429Z,10.20
2023-02-03T19:13:32.098Z,10.10
2023-02-03T19:15:58.818Z,10.10
2023-02-03T19:18:25.481Z,10.10
2023-02-03T19:20:52.374Z,10.10
2023-02-03T19:23:19.025Z,10.00
2023-02-03T19:25:50.654Z,9.90
2023-02-03T19:28:20.318Z,9.90
2023-02-03T19:31:00.044Z,9.90
2023-02-03T19:33:32.549Z,9.90
2023-02-03T19:35:59.186Z,9.80
2023-02-03T19:38:25.916Z,9.80
2023-02-03T19:40:52.562Z,9.80
2023-02-03T19:43:19.164Z,9.80
2023-02-03T19:45:45.782Z,9.70
2023-02-03T19:48:12.398Z,9.70
2023-02-03T19:50:40.786Z,9.70
2023-02-03T19:53:09.432Z,9.70
2023-02-03T19:55:36.038Z,9.70
2023-02-03T19:58:02.946Z,9.70
2023-02-03T20:00:29.891Z,9.70
2023-02-03T20:02:56.791Z,9.70
2023-02-03T20:05:23.434Z,9.70
2023-02-03T20:07:50.062Z,9.70
2023-02-03T20:10:16.978Z,9.70
2023-02-03T20:12:43.594Z,9.70
2023-02-03T20:15:10.653Z,9.70
2023-02-03T20:17:37.368Z,9.60
2023-02-03T20:20:04.677Z,9.60
2023-02-03T20:22:31.455Z,9.60
2023-02-03T20:24:59.496Z,9.60
2023-02-03T20:27:26.264Z,9.60
2023-02-03T20:29:54.041Z,9.60
2023-02-03T20:32:20.888Z,9.60
2023-02-03T20:34:47.605Z,9.60
2023-02-03T20:37:14.203Z,9.60
2023-02-03T20:39:41.111Z,9.60
2023-02-03T20:42:16.867Z,9.60
2023-02-03T20:44:44.055Z,9.60
2023-02-03T20:47:18.312Z,9.60
2023-02-03T20:49:45.664Z,9.60
2023-02-03T20:52:19.741Z,9.50
2023-02-03T20:54:46.393Z,9.60
2023-02-03T20:57:18.460Z,9.60
2023-02-03T20:59:45.972Z,9.50
2023-02-03T21:02:51.277Z,9.60
2023-02-03T21:05:27.404Z,9.50
2023-02-03T21:07:55.134Z,9.60
2023-02-03T21:10:24.520Z,9.60
2023-02-03T21:12:51.870Z,9.60
2023-02-03T21:15:29.806Z,9.60
2023-02-03T21:17:56.532Z,9.60
2023-02-03T21:20:28.299Z,9.60
2023-02-03T21:22:56.192Z,9.70
2023-02-03T21:25:28.779Z,9.70
2023-02-03T21:27:58.065Z,9.70
2023-02-03T21:30:32.428Z,9.70
2023-02-03T21:33:00.204Z,9.70
2023-02-03T21:35:33.766Z,9.70
2023-02-03T21:38:02.817Z,9.70
2023-02-03T21:40:34.625Z,9.70
2023-02-03T21:43:03.237Z,9.60
2023-02-03T21:45:35.340Z,9.60
2023-02-03T21:48:24.097Z,9.70
2023-02-03T21:50:51.718Z,9.60
2023-02-03T21:53:35.605Z,9.60
2023-02-03T21:56:24.312Z,9.60
2023-02-03T21:58:52.685Z,9.60
2023-02-03T22:01:20.427Z,9.60
2023-02-03T22:03:50.322Z,9.60
2023-02-03T22:06:24.297Z,9.60
2023-02-03T22:08:54.272Z,9.60
2023-02-03T22:11:23.625Z,9.60
2023-02-03T22:13:50.829Z,9.40
2023-02-03T22:16:18.261Z,9.40
2023-02-03T22:18:49.241Z,9.50
2023-02-03T22:21:16.966Z,9.60
2023-02-03T22:23:44.883Z,9.60
2023-02-03T22:26:12.699Z,9.60
2023-02-03T22:28:40.129Z,9.60
2023-02-03T22:31:07.809Z,9.60
2023-02-03T22:33:35.715Z,9.70
2023-02-03T22:36:03.282Z,9.70
2023-02-03T22:38:30.436Z,9.60
2023-02-03T22:40:57.123Z,9.70
2023-02-03T22:43:23.968Z,9.70
2023-02-03T22:45:50.654Z,9.70
2023-02-03T22:48:17.313Z,9.70
2023-02-03T22:50:43.981Z,9.70
2023-02-03T22:53:10.703Z,9.70
2023-02-03T22:55:38.496Z,9.70
2023-02-03T22:58:06.691Z,9.70
2023-02-03T23:00:34.445Z,9.70
2023-02-03T23:03:01.290Z,9.70
2023-02-03T23:05:27.974Z,9.70
2023-02-03T23:07:54.660Z,9.60
2023-02-03T23:10:24.744Z,9.50
2023-02-03T23:12:52.089Z,9.60
2023-02-03T23:15:19.189Z,9.60
2023-02-03T23:17:45.865Z,9.60
2023-02-03T23:20:14.143Z,9.60
2023-02-03T23:22:40.861Z,9.60
2023-02-03T23:25:07.901Z,9.60
2023-02-03T23:27:34.608Z,9.60
2023-02-03T23:30:01.261Z,9.60
2023-02-03T23:32:27.886Z,9.60
2023-02-03T23:35:12.985Z,9.60
2023-02-03T23:37:39.619Z,9.60
2023-02-03T23:40:07.249Z,9.60
2023-02-03T23:42:33.962Z,9.70
2023-02-03T23:45:00.744Z,9.70
2023-02-03T23:47:27.490Z,9.70
2023-02-03T23:49:54.096Z,9.70
2023-02-03T23:52:20.739Z,9.70
2023-02-03T23:54:47.392Z,9.60
2023-02-03T23:57:14.053Z,9.60
2023-02-03T23:59:40.725Z,9.50
